createdAt,value
2018-12-24T00:03:00.568Z,8.40
2018-12-24T00:06:04.342Z,8.60
2018-12-24T00:09:08.043Z,8.50
2018-12-24T00:12:11.529Z,8.20
2018-12-24T00:15:15.454Z,8.50
2018-12-24T00:18:19.091Z,8.10
2018-12-24T00:21:22.966Z,8.30
2018-12-24T00:24:26.470Z,8.20
2018-12-24T00:27:30.761Z,8.20
2018-12-24T00:30:34.270Z,8.20
2018-12-24T00:33:38.187Z,8.10
2018-12-24T00:36:41.774Z,8.40
2018-12-24T00:39:45.284Z,8.20
2018-12-24T00:42:48.769Z,8.00
2018-12-24T00:45:52.271Z,8.20
2018-12-24T00:48:56.135Z,8.40
2018-12-24T00:51:59.636Z,8.00
2018-12-24T00:55:03.228Z,8.20
2018-12-24T00:58:07.149Z,8.00
2018-12-24T01:01:10.681Z,8.00
2018-12-24T01:04:14.157Z,8.20
2018-12-24T01:07:18.092Z,8.00
2018-12-24T01:10:22.492Z,7.80
2018-12-24T01:13:26.323Z,8.20
2018-12-24T01:16:30.201Z,8.10
2018-12-24T01:19:35.289Z,8.10
2018-12-24T01:22:38.786Z,8.20
2018-12-24T01:25:42.303Z,8.20
2018-12-24T01:28:46.218Z,8.00
2018-12-24T01:31:49.726Z,8.20
2018-12-24T01:34:53.782Z,8.50
2018-12-24T01:37:57.954Z,8.00
2018-12-24T01:41:01.459Z,8.00
2018-12-24T01:44:05.345Z,8.10
2018-12-24T01:47:08.841Z,8.10
2018-12-24T01:50:12.382Z,7.80
2018-12-24T01:53:15.873Z,8.10
2018-12-24T01:56:19.981Z,7.70
2018-12-24T01:59:23.473Z,8.00
2018-12-24T02:02:27.750Z,8.00
2018-12-24T02:06:05.047Z,7.90
2018-12-24T02:09:07.979Z,7.70
2018-12-24T02:12:11.641Z,7.70
2018-12-24T02:15:14.550Z,7.80
2018-12-24T02:18:17.491Z,7.60
2018-12-24T02:21:21.201Z,7.90
2018-12-24T02:24:24.129Z,7.70
2018-12-24T02:27:27.741Z,8.00
2018-12-24T02:30:30.651Z,8.00
2018-12-24T02:33:33.975Z,8.00
2018-12-24T02:36:37.633Z,8.10
2018-12-24T02:39:40.557Z,8.10
2018-12-24T02:42:52.041Z,8.10
2018-12-24T02:45:49.023Z,8.10
2018-12-24T02:48:53.070Z,8.10
2018-12-24T02:51:56.852Z,8.20
2018-12-24T02:55:00.498Z,8.40
2018-12-24T02:58:04.113Z,8.20
2018-12-24T03:01:07.364Z,8.10
2018-12-24T03:04:10.969Z,8.00
2018-12-24T03:07:14.612Z,8.00
2018-12-24T03:10:17.546Z,8.20
2018-12-24T03:13:20.880Z,8.10
2018-12-24T03:16:23.860Z,7.60
2018-12-24T03:19:27.127Z,8.20
2018-12-24T03:22:30.087Z,7.90
2018-12-24T03:25:33.304Z,7.70
2018-12-24T03:28:36.961Z,8.10
2018-12-24T03:31:39.900Z,8.30
2018-12-24T03:34:43.242Z,8.00
2018-12-24T03:37:46.188Z,8.20
2018-12-24T03:40:50.171Z,8.00
2018-12-24T03:43:53.417Z,8.20
2018-12-24T03:46:56.366Z,8.40
2018-12-24T03:49:59.978Z,8.10
2018-12-24T03:53:03.219Z,8.10
2018-12-24T03:56:06.174Z,8.40
2018-12-24T03:59:09.792Z,8.00
2018-12-24T04:02:12.732Z,7.90
2018-12-24T04:05:15.641Z,8.10
2018-12-24T04:08:18.586Z,8.10
2018-12-24T04:11:23.963Z,7.90
2018-12-24T04:14:27.400Z,8.30
2018-12-24T04:17:31.106Z,8.10
2018-12-24T04:20:34.044Z,8.20
2018-12-24T04:23:37.439Z,8.00
2018-12-24T04:26:40.668Z,7.90
2018-12-24T04:29:43.602Z,8.00
2018-12-24T04:32:47.336Z,8.00
2018-12-24T04:35:50.943Z,8.00
2018-12-24T04:38:54.623Z,8.00
2018-12-24T04:41:57.902Z,8.40
2018-12-24T04:45:00.842Z,8.10
2018-12-24T04:48:03.776Z,8.20
2018-12-24T04:51:06.685Z,8.40
2018-12-24T04:54:10.359Z,8.10
2018-12-24T04:57:13.262Z,8.10
2018-12-24T05:00:16.329Z,8.00
2018-12-24T05:03:19.956Z,8.10
2018-12-24T05:06:23.222Z,8.20
2018-12-24T05:09:27.279Z,8.10
2018-12-24T05:12:30.185Z,8.00
2018-12-24T05:15:33.444Z,7.90
2018-12-24T05:18:36.793Z,8.00
2018-12-24T05:21:40.745Z,8.10
2018-12-24T05:24:44.378Z,8.00
2018-12-24T05:27:47.624Z,8.00
2018-12-24T05:30:51.230Z,8.20
2018-12-24T05:33:54.164Z,7.90
2018-12-24T05:36:57.396Z,7.60
2018-12-24T05:40:00.334Z,7.90
2018-12-24T05:43:03.248Z,7.90
2018-12-24T05:46:06.555Z,7.90
2018-12-24T05:49:09.752Z,7.80
2018-12-24T05:52:13.048Z,8.00
2018-12-24T05:55:17.672Z,8.10
2018-12-24T05:58:20.583Z,7.90
2018-12-24T06:01:24.188Z,8.10
2018-12-24T06:04:27.721Z,8.00
2018-12-24T06:07:30.656Z,7.90
2018-12-24T06:10:33.984Z,8.10
2018-12-24T06:13:37.267Z,8.10
2018-12-24T06:16:40.571Z,8.00
2018-12-24T06:19:43.902Z,8.00
2018-12-24T06:22:46.875Z,7.90
2018-12-24T06:25:50.215Z,8.10
2018-12-24T06:28:53.517Z,8.10
2018-12-24T06:31:56.808Z,8.10
2018-12-24T06:35:00.337Z,8.10
2018-12-24T06:38:03.287Z,8.20
2018-12-24T06:41:06.197Z,7.90
2018-12-24T06:44:09.556Z,8.00
2018-12-24T06:47:12.489Z,8.20
2018-12-24T06:50:15.830Z,8.30
2018-12-24T06:53:18.968Z,8.10
2018-12-24T06:56:21.875Z,8.00
2018-12-24T06:59:25.817Z,8.10
2018-12-24T07:02:29.167Z,8.00
2018-12-24T07:05:32.084Z,7.90
2018-12-24T07:08:35.404Z,7.90
2018-12-24T07:11:38.319Z,8.00
2018-12-24T07:14:41.598Z,7.90
2018-12-24T07:17:44.523Z,7.40
2018-12-24T07:20:48.035Z,8.20
2018-12-24T07:23:50.970Z,7.90
2018-12-24T07:26:53.919Z,7.90
2018-12-24T07:29:57.167Z,7.80
2018-12-24T07:33:00.102Z,8.00
2018-12-24T07:36:03.420Z,8.00
2018-12-24T07:39:07.089Z,7.70
2018-12-24T07:42:10.462Z,8.10
2018-12-24T07:45:13.785Z,7.80
2018-12-24T07:48:17.241Z,7.80
2018-12-24T07:51:20.173Z,7.70
2018-12-24T07:54:23.875Z,8.00
2018-12-24T07:57:26.817Z,7.60
2018-12-24T08:00:29.720Z,7.60
2018-12-24T08:03:34.129Z,7.50
2018-12-24T08:06:37.396Z,7.60
2018-12-24T08:09:40.347Z,7.90
2018-12-24T08:12:43.311Z,7.60
2018-12-24T08:15:46.521Z,7.80
2018-12-24T08:18:49.568Z,7.60
2018-12-24T08:21:52.890Z,7.70
2018-12-24T08:24:55.823Z,7.60
2018-12-24T08:27:59.412Z,7.70
2018-12-24T08:31:02.693Z,7.70
2018-12-24T08:34:06.091Z,7.60
2018-12-24T08:37:09.363Z,7.70
2018-12-24T08:40:12.681Z,8.20
2018-12-24T08:43:15.621Z,8.30
2018-12-24T08:46:18.547Z,7.80
2018-12-24T08:49:21.487Z,7.70
2018-12-24T08:52:24.407Z,7.70
2018-12-24T08:55:27.353Z,7.60
2018-12-24T08:58:30.689Z,7.50
2018-12-24T09:01:33.964Z,7.40
2018-12-24T09:04:37.178Z,7.70
2018-12-24T09:07:40.479Z,7.20
2018-12-24T09:10:43.468Z,7.40
2018-12-24T09:13:46.681Z,7.50
2018-12-24T09:16:50.007Z,7.40
2018-12-24T09:19:53.644Z,7.40
2018-12-24T09:22:57.552Z,7.20
2018-12-24T09:26:00.497Z,7.50
2018-12-24T09:29:03.501Z,6.90
2018-12-24T09:32:06.459Z,7.60
2018-12-24T09:35:09.392Z,7.40
2018-12-24T09:38:12.400Z,7.40
2018-12-24T09:41:16.104Z,7.50
2018-12-24T09:44:19.147Z,7.50
2018-12-24T09:47:22.392Z,7.30
2018-12-24T09:50:25.716Z,7.40
2018-12-24T09:53:29.080Z,7.30
2018-12-24T09:56:32.370Z,7.40
2018-12-24T09:59:35.287Z,7.10
2018-12-24T10:02:48.622Z,7.00
2018-12-24T10:05:56.638Z,7.50
2018-12-24T10:09:05.258Z,7.20
2018-12-24T10:12:08.327Z,7.20
2018-12-24T10:15:11.240Z,7.30
2018-12-24T10:18:14.195Z,7.20
2018-12-24T10:21:17.536Z,7.20
2018-12-24T10:24:20.494Z,7.30
2018-12-24T10:27:23.460Z,7.70
2018-12-24T10:30:26.367Z,7.00
2018-12-24T10:33:30.679Z,7.50
2018-12-24T10:36:33.611Z,7.50
2018-12-24T10:39:36.897Z,7.40
2018-12-24T10:42:59.293Z,7.40
2018-12-24T10:46:15.180Z,7.40
2018-12-24T10:49:37.839Z,7.00
2018-12-24T10:52:53.501Z,7.20
2018-12-24T10:56:15.866Z,7.30
2018-12-24T10:59:33.223Z,7.20
2018-12-24T11:02:55.611Z,7.50
2018-12-24T11:06:17.906Z,7.40
2018-12-24T11:09:40.667Z,7.60
2018-12-24T11:16:54.114Z,7.30
2018-12-24T11:20:16.493Z,7.70
2018-12-24T11:23:32.468Z,7.60
2018-12-24T11:26:48.055Z,7.10
2018-12-24T11:30:10.442Z,7.60
2018-12-24T11:33:25.854Z,7.60
2018-12-24T11:36:48.579Z,7.20
2018-12-24T11:40:03.873Z,7.70
2018-12-24T11:43:26.582Z,7.70
2018-12-24T11:46:42.264Z,7.80
2018-12-24T11:50:04.781Z,7.80
2018-12-24T11:53:20.580Z,7.40
2018-12-24T11:56:43.250Z,8.00
2018-12-24T11:59:58.706Z,7.70
2018-12-24T12:03:21.363Z,7.20
2018-12-24T12:06:37.646Z,7.50
2018-12-24T12:10:00.367Z,7.50
2018-12-24T12:13:15.941Z,8.00
2018-12-24T12:16:38.385Z,8.10
2018-12-24T12:19:53.937Z,7.90
2018-12-24T12:23:16.323Z,8.00
2018-12-24T12:26:32.373Z,7.20
2018-12-24T12:29:54.740Z,7.70
2018-12-24T12:33:10.615Z,7.70
2018-12-24T12:36:33.315Z,7.80
2018-12-24T12:39:49.304Z,7.80
2018-12-24T12:43:11.690Z,7.70
2018-12-24T12:46:27.689Z,7.70
2018-12-24T12:49:43.015Z,7.70
2018-12-24T12:53:05.426Z,8.10
2018-12-24T12:56:21.320Z,7.70
2018-12-24T12:59:36.699Z,7.90
2018-12-24T13:02:59.394Z,7.70
2018-12-24T13:06:15.476Z,7.80
2018-12-24T13:09:31.297Z,7.50
2018-12-24T13:12:54.049Z,8.30
2018-12-24T13:16:09.044Z,7.80
2018-12-24T13:19:24.101Z,7.90
2018-12-24T13:22:39.493Z,7.60
2018-12-24T13:25:55.079Z,7.70
2018-12-24T13:29:10.207Z,7.90
2018-12-24T13:32:32.916Z,8.00
2018-12-24T13:35:48.890Z,7.50
2018-12-24T13:39:11.588Z,7.30
2018-12-24T13:42:26.665Z,8.40
2018-12-24T13:45:49.073Z,7.40
2018-12-24T13:49:04.449Z,7.70
2018-12-24T13:52:27.156Z,7.80
2018-12-24T13:55:42.331Z,8.00
2018-12-24T13:59:04.695Z,7.60
2018-12-24T14:02:19.707Z,7.80
2018-12-24T14:05:42.444Z,7.60
2018-12-24T14:08:58.100Z,7.40
2018-12-24T14:12:20.482Z,7.90
2018-12-24T14:15:35.848Z,7.50
2018-12-24T14:18:54.770Z,7.50
2018-12-24T14:22:10.369Z,8.00
2018-12-24T14:25:32.737Z,7.50
2018-12-24T14:28:48.903Z,8.00
2018-12-24T14:32:11.284Z,7.80
2018-12-24T14:35:26.358Z,7.70
2018-12-24T14:38:41.514Z,7.60
2018-12-24T14:42:04.485Z,9.30
2018-12-24T14:45:20.348Z,8.50
2018-12-24T14:48:42.861Z,8.30
2018-12-24T14:51:59.034Z,7.70
2018-12-24T14:55:02.196Z,7.30
2018-12-24T14:58:17.771Z,7.40
2018-12-24T15:01:40.134Z,7.60
2018-12-24T15:04:56.054Z,6.60
2018-12-24T15:08:18.779Z,6.80
2018-12-24T15:11:34.736Z,6.40
2018-12-24T15:14:57.409Z,6.20
2018-12-24T15:18:13.688Z,6.50
2018-12-24T15:21:29.627Z,6.10
2018-12-24T15:24:52.567Z,6.40
2018-12-24T15:28:07.908Z,6.10
2018-12-24T15:31:23.853Z,5.80
2018-12-24T15:34:39.724Z,6.20
2018-12-24T15:38:02.399Z,6.10
2018-12-24T15:41:17.518Z,6.20
2018-12-24T15:44:40.490Z,6.40
2018-12-24T15:47:56.093Z,6.00
2018-12-24T15:51:18.736Z,5.30
2018-12-24T15:54:33.761Z,5.60
2018-12-24T15:57:56.127Z,5.90
2018-12-24T16:01:11.531Z,5.70
2018-12-24T16:04:33.927Z,5.70
2018-12-24T16:07:49.903Z,5.60
2018-12-24T16:11:12.291Z,5.70
2018-12-24T16:14:27.740Z,5.60
2018-12-24T16:17:50.127Z,5.20
2018-12-24T16:20:53.707Z,5.40
2018-12-24T16:24:16.072Z,5.30
2018-12-24T16:27:31.873Z,5.40
2018-12-24T16:30:55.260Z,5.50
2018-12-24T16:34:11.056Z,5.50
2018-12-24T16:37:26.332Z,5.40
2018-12-24T16:40:49.056Z,5.40
2018-12-24T16:44:04.915Z,5.00
2018-12-24T16:47:20.190Z,5.20
2018-12-24T16:50:42.861Z,4.80
2018-12-24T16:53:58.577Z,5.00
2018-12-24T16:57:21.279Z,4.90
2018-12-24T17:00:37.192Z,5.00
2018-12-24T17:03:59.576Z,4.80
2018-12-24T17:07:15.774Z,5.20
2018-12-24T17:10:38.805Z,5.30
2018-12-24T17:13:54.380Z,5.40
2018-12-24T17:17:09.697Z,4.90
2018-12-24T17:20:25.526Z,5.30
2018-12-24T17:23:40.741Z,5.20
2018-12-24T17:27:03.191Z,5.30
2018-12-24T17:30:18.740Z,5.40
2018-12-24T17:33:34.137Z,5.30
2018-12-24T17:36:56.499Z,5.40
2018-12-24T17:40:12.607Z,6.20
2018-12-24T17:43:35.432Z,6.40
2018-12-24T17:46:51.164Z,5.70
2018-12-24T17:50:06.258Z,5.80
2018-12-24T17:53:28.636Z,5.70
2018-12-24T17:56:44.540Z,5.10
2018-12-24T18:00:06.944Z,5.70
2018-12-24T18:03:22.603Z,5.60
2018-12-24T18:06:45.917Z,6.60
2018-12-24T18:10:00.933Z,6.00
2018-12-24T18:13:23.574Z,5.70
2018-12-24T18:16:38.576Z,5.80
2018-12-24T18:19:53.772Z,5.70
2018-12-24T18:23:16.524Z,5.50
2018-12-24T18:26:32.463Z,5.20
2018-12-24T18:29:54.835Z,5.50
2018-12-24T18:33:10.791Z,5.60
2018-12-24T18:36:33.555Z,5.40
2018-12-24T18:39:49.337Z,5.70
2018-12-24T18:43:11.728Z,5.40
2018-12-24T18:46:27.679Z,5.70
2018-12-24T18:49:50.175Z,5.70
2018-12-24T18:52:53.080Z,5.70
2018-12-24T18:56:16.126Z,5.70
2018-12-24T18:59:32.199Z,5.70
2018-12-24T19:02:54.584Z,5.70
2018-12-24T19:06:10.597Z,6.00
2018-12-24T19:09:33.414Z,5.90
2018-12-24T19:12:49.144Z,6.00
2018-12-24T19:16:11.630Z,6.20
2018-12-24T19:19:26.696Z,5.60
2018-12-24T19:22:49.476Z,5.90
2018-12-24T19:26:04.960Z,6.00
2018-12-24T19:29:27.460Z,5.90
2018-12-24T19:32:42.525Z,5.90
2018-12-24T19:35:57.810Z,5.80
2018-12-24T19:39:20.606Z,5.90
2018-12-24T19:42:36.397Z,6.20
2018-12-24T19:45:51.868Z,6.10
2018-12-24T19:49:14.235Z,8.40
2018-12-24T19:52:30.485Z,7.50
2018-12-24T19:55:54.927Z,6.70
2018-12-24T19:59:30.273Z,6.50
2018-12-24T20:02:52.651Z,6.30
2018-12-24T20:06:08.350Z,6.30
2018-12-24T20:09:30.711Z,6.30
2018-12-24T20:12:45.937Z,6.30
2018-12-24T20:16:08.638Z,7.00
2018-12-24T20:19:23.900Z,8.40
2018-12-24T20:22:46.660Z,7.00
2018-12-24T20:26:02.259Z,6.80
2018-12-24T20:29:17.687Z,6.30
2018-12-24T20:32:40.075Z,6.60
2018-12-24T20:35:43.367Z,6.40
2018-12-24T20:38:58.554Z,6.60
2018-12-24T20:42:20.909Z,6.50
2018-12-24T20:45:35.945Z,6.70
2018-12-24T20:48:58.644Z,6.50
2018-12-24T20:52:14.795Z,6.30
2018-12-24T20:55:30.132Z,6.20
2018-12-24T20:58:33.054Z,6.10
2018-12-24T21:01:48.692Z,6.20
2018-12-24T21:05:11.092Z,5.80
2018-12-24T21:08:26.859Z,5.80
2018-12-24T21:11:49.239Z,6.00
2018-12-24T21:15:04.303Z,6.20
2018-12-24T21:18:26.779Z,6.00
2018-12-24T21:21:42.305Z,5.80
2018-12-24T21:25:04.824Z,5.80
2018-12-24T21:28:20.380Z,6.00
2018-12-24T21:31:43.124Z,6.20
2018-12-24T21:34:58.104Z,6.20
2018-12-24T21:38:13.474Z,5.80
2018-12-24T21:41:35.885Z,6.00
2018-12-24T21:44:51.047Z,6.10
2018-12-24T21:48:06.378Z,6.20
2018-12-24T21:51:28.740Z,6.40
2018-12-24T21:54:44.676Z,6.00
2018-12-24T21:58:07.771Z,6.10
2018-12-24T22:01:23.267Z,6.50
2018-12-24T22:04:45.652Z,6.10
2018-12-24T22:08:01.645Z,6.30
2018-12-24T22:11:17.904Z,6.20
2018-12-24T22:14:32.990Z,6.20
2018-12-24T22:17:55.642Z,5.90
2018-12-24T22:21:10.823Z,6.30
2018-12-24T22:24:34.074Z,6.10
2018-12-24T22:27:50.039Z,6.10
2018-12-24T22:31:12.444Z,6.20
2018-12-24T22:34:27.759Z,5.90
2018-12-24T22:37:30.678Z,6.20
2018-12-24T22:40:45.986Z,6.10
2018-12-24T22:44:08.388Z,6.20
2018-12-24T22:47:23.695Z,6.20
2018-12-24T22:50:46.388Z,6.40
2018-12-24T22:54:01.719Z,6.30
2018-12-24T22:57:24.752Z,6.30
2018-12-24T23:00:46.455Z,6.30
2018-12-24T23:04:10.717Z,6.30
2018-12-24T23:07:26.471Z,6.30
2018-12-24T23:10:42.240Z,6.00
